Time;durP1;ratioP1;P1;durP2;ratioP2;P2;SDS_P1;SDS_P2;PMS_P1;PMS_P2;Temp;Humidity;BMP_temperature;BMP_pressure;BME280_temperature;BME280_humidity;BME280_pressure;Samples;Min_cycle;Max_cycle;Signal;HPM_P1;HPM_P2
2021/12/05 00:19:45;;;;;;;8.02;1.33;;;;;;;3.31;100.00;99773.25;5115671;28;20427;-53
2021/12/05 00:22:21;;;;;;;7.72;2.28;;;;;;;3.40;100.00;99779.84;5117060;28;20056;-53
2021/12/05 00:24:53;;;;;;;7.32;2.03;;;;;;;3.47;100.00;99767.31;5116899;28;20090;-53
2021/12/05 00:27:28;;;;;;;8.80;1.73;;;;;;;3.60;100.00;99763.22;5116340;28;20469;-52
2021/12/05 00:30:06;;;;;;;8.43;2.63;;;;;;;3.60;100.00;99750.09;5116349;28;20060;-52
2021/12/05 00:32:45;;;;;;;16.65;6.35;;;;;;;3.70;100.00;99754.00;5116344;28;20051;-53
2021/12/05 00:35:51;;;;;;;13.10;3.90;;;;;;;3.80;99.38;99753.56;5116260;28;20134;-51
2021/12/05 00:41:42;;;;;;;6.32;2.42;;;;;;;3.63;98.66;99751.72;5059572;28;20053;-53
2021/12/05 00:47:29;;;;;;;10.23;3.42;;;;;;;3.60;98.28;99755.34;5052405;28;20052;-52
2021/12/05 00:53:10;;;;;;;10.52;2.85;;;;;;;3.54;98.05;99753.00;5116224;28;20051;-52
2021/12/05 00:55:49;;;;;;;7.55;2.03;;;;;;;3.51;98.24;99753.13;5115762;28;20067;-53
2021/12/05 01:07:08;;;;;;;12.02;5.20;;;;;;;3.30;99.24;99768.06;5116208;28;20055;-53
2021/12/05 01:09:42;;;;;;;6.32;2.10;;;;;;;3.41;98.81;99780.69;5115153;28;20117;-53
2021/12/05 01:12:34;;;;;;;10.93;2.45;;;;;;;3.47;98.17;99783.03;5115552;28;20052;-53
2021/12/05 01:15:06;;;;;;;9.18;3.20;;;;;;;3.58;98.91;99787.78;5114868;28;20055;-51
2021/12/05 01:17:42;;;;;;;;;;;;;;;3.59;99.29;99792.97;5115479;28;20511;-53
2021/12/05 01:20:13;;;;;;;6.20;1.17;;;;;;;3.57;99.38;99792.19;5115772;28;19927;-51
2021/12/05 01:22:47;;;;;;;6.97;1.60;;;;;;;3.57;99.06;99789.56;5114546;28;20063;-53
2021/12/05 01:25:28;;;;;;;6.03;2.30;;;;;;;3.51;98.96;99785.47;5115590;28;20056;-53
2021/12/05 01:28:03;;;;;;;7.68;2.20;;;;;;;3.42;98.88;99769.28;5115606;28;20113;-53
2021/12/05 01:30:40;;;;;;;6.25;1.70;;;;;;;3.34;98.80;99753.88;5115175;28;20052;-52
2021/12/05 01:33:17;;;;;;;9.18;1.95;;;;;;;3.49;98.40;99770.69;5114760;28;20059;-53
2021/12/05 01:38:52;;;;;;;6.15;1.60;;;;;;;3.25;99.39;99768.25;5111685;28;20066;-53
2021/12/05 01:53:20;;;;;;;8.27;1.65;;;;;;;3.17;100.00;99780.84;5032185;28;20057;-53
2021/12/05 01:56:09;;;;;;;13.40;1.73;;;;;;;3.25;100.00;99783.97;5111137;28;20061;-52
2021/12/05 01:58:55;;;;;;;7.10;1.40;;;;;;;3.32;100.00;99782.78;5114541;28;20052;-52
2021/12/05 02:09:53;;;;;;;4.45;1.30;;;;;;;3.43;100.00;99776.22;5114578;28;20115;-51
2021/12/05 02:32:12;;;;;;;10.77;1.67;;;;;;;3.30;100.00;99810.84;5118032;28;20503;-53
2021/12/05 02:34:49;;;;;;;7.68;1.60;;;;;;;3.25;100.00;99807.56;5118016;28;20541;-53
2021/12/05 02:37:35;;;;;;;5.93;1.08;;;;;;;3.27;100.00;99795.25;5117888;28;20095;-52
2021/12/05 02:40:25;;;;;;;10.98;1.63;;;;;;;3.31;100.00;99799.44;5117641;28;20561;-53
2021/12/05 02:43:00;;;;;;;10.25;1.30;;;;;;;3.25;100.00;99814.59;5118709;28;20059;-51
2021/12/05 02:45:30;;;;;;;6.30;1.00;;;;;;;3.34;100.00;99803.69;5117665;28;20059;-52
2021/12/05 02:47:59;;;;;;;9.50;1.48;;;;;;;3.41;100.00;99825.25;5117729;28;20057;-52
2021/12/05 02:50:30;;;;;;;10.63;1.35;;;;;;;3.44;100.00;99814.63;5118386;28;20055;-53
2021/12/05 02:53:08;;;;;;;6.82;1.45;;;;;;;3.44;100.00;99815.47;5118501;28;20056;-50
2021/12/05 02:55:38;;;;;;;10.23;1.52;;;;;;;3.42;100.00;99806.00;5117296;28;20059;-53
2021/12/05 02:58:16;;;;;;;;;;;;;;;3.35;100.00;99800.16;5118905;28;20052;-52
2021/12/05 03:00:55;;;;;;;9.38;1.33;;;;;;;3.37;100.00;99787.84;5117201;28;19920;-52
2021/12/05 03:03:25;;;;;;;15.60;1.75;;;;;;;3.33;100.00;99794.97;5117792;28;20056;-51
2021/12/05 03:06:00;;;;;;;14.50;1.60;;;;;;;3.31;100.00;99799.44;5118318;28;20059;-53
2021/12/05 03:08:30;;;;;;;17.02;1.70;;;;;;;3.31;100.00;99799.44;5117959;28;20082;-52
2021/12/05 03:11:00;;;;;;;12.35;1.38;;;;;;;3.29;100.00;99810.91;5117616;28;20066;-53
2021/12/05 03:13:29;;;;;;;13.82;3.55;;;;;;;3.37;100.00;99803.56;5117269;28;20069;-53
2021/12/05 03:15:58;;;;;;;12.77;1.60;;;;;;;3.41;100.00;99809.53;5117715;28;20059;-52
2021/12/05 03:18:26;;;;;;;10.43;1.88;;;;;;;3.43;100.00;99818.16;5117101;28;20577;-51
2021/12/05 03:20:58;;;;;;;9.02;1.77;;;;;;;3.47;100.00;99804.00;5117064;28;20095;-52
2021/12/05 03:23:29;;;;;;;9.80;1.60;;;;;;;3.38;100.00;99799.16;5117036;28;20056;-53
2021/12/05 03:25:57;;;;;;;10.63;1.95;;;;;;;3.23;100.00;99804.16;5116889;28;20532;-53
2021/12/05 03:28:26;;;;;;;8.23;1.50;;;;;;;3.25;100.00;99810.19;5116931;28;20067;-52
2021/12/05 03:30:55;;;;;;;13.35;1.65;;;;;;;3.25;100.00;99804.94;5117447;28;20401;-53
2021/12/05 03:33:23;;;;;;;16.30;1.90;;;;;;;3.15;100.00;99814.13;5117737;28;20055;-51
2021/12/05 03:35:51;;;;;;;8.82;1.42;;;;;;;3.12;100.00;99806.38;5117699;28;20418;-51
2021/12/05 03:38:20;;;;;;;12.70;1.75;;;;;;;3.02;100.00;99813.78;5117359;28;20093;-53
2021/12/05 03:40:49;;;;;;;7.65;1.33;;;;;;;2.95;100.00;99807.09;5116845;28;20051;-52
2021/12/05 03:43:19;;;;;;;10.70;2.25;;;;;;;2.97;100.00;99811.34;5117571;28;20059;-53
2021/12/05 03:45:56;;;;;;;13.35;2.22;;;;;;;3.09;100.00;99811.75;5117127;28;20059;-51
2021/12/05 03:48:26;;;;;;;6.80;1.63;;;;;;;3.18;100.00;99814.00;5117184;28;20055;-51
2021/12/05 03:50:56;;;;;;;10.55;2.10;;;;;;;3.16;100.00;99815.81;5117419;28;20507;-52
2021/12/05 03:53:24;;;;;;;10.43;1.65;;;;;;;3.15;100.00;99820.22;5116226;28;20048;-51
2021/12/05 03:55:55;;;;;;;20.35;2.17;;;;;;;3.19;100.00;99831.41;5116373;28;20430;-53
2021/12/05 03:58:24;;;;;;;10.20;1.80;;;;;;;3.21;100.00;99829.59;5116995;28;20064;-50
2021/12/05 04:00:57;;;;;;;8.52;1.83;;;;;;;3.19;100.00;99836.66;5116603;28;20369;-53
2021/12/05 04:03:27;;;;;;;9.27;1.40;;;;;;;3.09;100.00;99836.22;5117050;28;20476;-53
2021/12/05 04:05:56;;;;;;;6.85;1.38;;;;;;;3.00;100.00;99846.22;5116427;28;20384;-52
2021/12/05 04:08:25;;;;;;;10.45;1.65;;;;;;;3.00;100.00;99848.84;5116162;28;20062;-52
2021/12/05 04:10:58;;;;;;;15.95;1.35;;;;;;;2.94;100.00;99847.31;5117037;28;20051;-52
2021/12/05 04:13:27;;;;;;;13.35;2.30;;;;;;;2.93;100.00;99853.47;5116469;28;20052;-52
2021/12/05 04:15:56;;;;;;;14.15;1.65;;;;;;;2.87;100.00;99851.94;5116308;28;20062;-53
2021/12/05 04:18:25;;;;;;;13.00;2.38;;;;;;;2.92;100.00;99855.22;5116239;28;20142;-53
2021/12/05 04:20:54;;;;;;;7.78;1.95;;;;;;;2.95;100.00;99854.25;5116784;28;20134;-53
2021/12/05 04:23:22;;;;;;;10.80;1.77;;;;;;;2.87;100.00;99851.94;5115634;28;20058;-52
2021/12/05 04:25:52;;;;;;;17.48;1.90;;;;;;;2.88;100.00;99853.66;5116041;28;20414;-51
2021/12/05 04:28:23;;;;;;;12.98;2.53;;;;;;;2.97;100.00;99858.50;5116055;28;20059;-53
2021/12/05 04:30:51;;;;;;;14.38;2.90;;;;;;;3.09;100.00;99864.16;5115501;28;20062;-50
2021/12/05 04:33:21;;;;;;;12.48;2.03;;;;;;;3.12;100.00;99871.91;5115663;28;20056;-51
2021/12/05 04:35:49;;;;;;;7.20;1.40;;;;;;;3.10;100.00;99882.44;5115930;28;20056;-52
2021/12/05 04:38:18;;;;;;;21.35;1.92;;;;;;;3.00;100.00;99881.13;5116275;28;20059;-53
2021/12/05 04:40:47;;;;;;;14.20;1.60;;;;;;;2.97;100.00;99889.09;5115823;28;20054;-53
2021/12/05 04:43:16;;;;;;;14.32;2.33;;;;;;;2.92;100.00;99884.03;5114520;28;20507;-52
2021/12/05 04:45:46;;;;;;;14.63;1.67;;;;;;;2.88;100.00;99879.84;5115647;28;20117;-50
2021/12/05 04:48:14;;;;;;;13.30;1.40;;;;;;;2.89;100.00;99876.34;5116241;28;20461;-50
2021/12/05 04:50:44;;;;;;;14.43;1.73;;;;;;;2.84;100.00;99880.91;5115846;28;20499;-53
2021/12/05 04:53:13;;;;;;;12.35;1.77;;;;;;;2.75;100.00;99879.47;5115311;28;20052;-51
2021/12/05 04:55:41;;;;;;;15.43;1.50;;;;;;;2.74;100.00;99879.53;5115266;28;20055;-52
2021/12/05 04:58:09;;;;;;;15.70;2.15;;;;;;;2.78;100.00;99886.38;5115214;28;20384;-53
2021/12/05 05:00:41;;;;;;;13.43;1.98;;;;;;;2.88;100.00;99889.50;5115421;28;20052;-53
2021/12/05 05:03:12;;;;;;;13.05;1.95;;;;;;;3.08;100.00;99907.03;5114936;28;20055;-50
2021/12/05 05:05:47;;;;;;;17.48;2.03;;;;;;;3.24;100.00;99902.84;5114755;28;20071;-53
2021/12/05 05:08:16;;;;;;;16.60;2.40;;;;;;;3.50;100.00;99899.13;5115665;28;20070;-52
2021/12/05 05:10:44;;;;;;;8.88;1.98;;;;;;;3.69;100.00;99911.47;5115559;28;20056;-51
2021/12/05 05:13:13;;;;;;;12.80;1.70;;;;;;;3.65;100.00;99905.50;5115803;28;20220;-51
2021/12/05 05:15:41;;;;;;;5.78;1.00;;;;;;;3.63;100.00;99917.84;5115420;28;20051;-50
2021/12/05 05:18:12;;;;;;;12.77;1.92;;;;;;;3.59;100.00;99912.78;5114895;28;20534;-51
2021/12/05 05:20:49;;;;;;;7.50;1.40;;;;;;;3.67;100.00;99927.25;5115450;28;20051;-51
2021/12/05 05:23:30;;;;;;;10.63;2.30;;;;;;;3.66;99.65;99917.69;5114610;28;20417;-51
2021/12/05 05:40:22;;;;;;;8.95;1.35;;;;;;;3.68;98.51;99939.47;5115264;28;20051;-52
2021/12/05 05:43:18;;;;;;;13.25;2.08;;;;;;;3.80;97.68;99935.47;5114341;28;20052;-53
2021/12/05 05:45:58;;;;;;;10.10;1.55;;;;;;;3.75;97.32;99926.94;5114198;28;20447;-51
2021/12/05 05:51:12;;;;;;;16.20;3.60;;;;;;;3.68;97.32;99943.84;5113925;28;20419;-50
2021/12/05 05:53:41;;;;;;;13.88;2.10;;;;;;;3.64;97.29;99947.53;5115420;28;20403;-53
2021/12/05 05:56:15;;;;;;;8.65;1.63;;;;;;;3.65;97.60;99944.00;5119035;28;20430;-52
2021/12/05 05:58:47;;;;;;;14.27;1.70;;;;;;;3.72;97.43;99938.41;5119001;28;20055;-50
2021/12/05 06:01:21;;;;;;;7.90;1.48;;;;;;;3.88;96.41;99948.25;5119142;28;20081;-53
2021/12/05 06:03:50;;;;;;;14.75;1.75;;;;;;;4.00;94.83;99945.09;5118601;28;20064;-52
2021/12/05 06:06:22;;;;;;;12.48;1.27;;;;;;;4.02;95.54;99956.38;5118794;28;20059;-50
2021/12/05 06:08:50;;;;;;;;;;;;;;;4.12;95.08;99963.84;5118692;28;20062;-52
2021/12/05 06:11:19;;;;;;;7.47;1.52;;;;;;;4.25;93.95;99954.50;5119609;28;19994;-52
2021/12/05 06:13:47;;;;;;;8.23;1.83;;;;;;;4.31;92.75;99963.88;5118160;28;20560;-52
2021/12/05 06:16:16;;;;;;;7.00;1.42;;;;;;;4.27;92.42;99968.44;5118582;28;20059;-53
2021/12/05 06:18:45;;;;;;;11.45;1.52;;;;;;;4.25;93.34;99965.00;5118267;28;20060;-53
2021/12/05 06:21:14;;;;;;;11.95;1.90;;;;;;;4.19;93.65;99981.03;5118505;28;20073;-51
2021/12/05 06:23:45;;;;;;;18.98;2.88;;;;;;;4.15;93.36;99974.19;5119109;28;20056;-52
2021/12/05 06:26:20;;;;;;;15.05;1.80;;;;;;;4.27;92.30;99978.94;5119258;28;20058;-51
2021/12/05 06:28:57;;;;;;;9.25;1.45;;;;;;;4.30;92.26;99970.88;5118924;28;20406;-52
2021/12/05 06:31:36;;;;;;;8.68;1.70;;;;;;;4.31;91.81;99985.75;5118703;28;20056;-51
2021/12/05 06:37:14;;;;;;;9.38;1.60;;;;;;;4.48;91.60;99998.13;5092940;28;20062;-53
2021/12/05 06:39:48;;;;;;;8.68;1.77;;;;;;;4.57;91.02;99991.59;5117637;28;20055;-51
2021/12/05 06:42:45;;;;;;;28.70;4.18;;;;;;;4.45;90.92;100004.38;5119329;28;20055;-51
2021/12/05 06:47:58;;;;;;;8.73;1.60;;;;;;;4.27;92.26;100006.03;5118536;28;20066;-53
2021/12/05 06:50:27;;;;;;;15.85;2.22;;;;;;;4.40;92.77;100001.06;5118551;28;20399;-53
2021/12/05 06:52:55;;;;;;;5.63;1.25;;;;;;;4.49;92.43;100001.56;5118210;28;20059;-53
2021/12/05 06:55:25;;;;;;;11.65;1.60;;;;;;;4.51;92.49;99997.97;5118777;28;20387;-53
2021/12/05 06:57:53;;;;;;;14.80;2.03;;;;;;;4.53;92.34;100008.41;5118083;28;20056;-50
2021/12/05 07:00:23;;;;;;;11.27;1.52;;;;;;;4.43;92.87;100005.34;5118398;28;20062;-51
2021/12/05 07:02:51;;;;;;;12.32;2.50;;;;;;;4.62;93.51;100010.63;5118370;28;20087;-53
2021/12/05 07:05:41;;;;;;;10.63;1.85;;;;;;;4.79;93.40;100025.59;5116534;28;20095;-51
2021/12/05 07:08:12;;;;;;;14.02;1.65;;;;;;;4.89;93.72;100018.16;5117609;28;20062;-53
2021/12/05 07:10:48;;;;;;;12.48;1.67;;;;;;;4.94;91.95;100016.16;5117338;28;20052;-51
2021/12/05 07:14:02;;;;;;;12.68;2.03;;;;;;;4.83;93.33;100007.00;5117343;28;20056;-52
2021/12/05 07:16:36;;;;;;;15.60;2.75;;;;;;;4.68;93.82;100010.34;5117678;28;20055;-49
2021/12/05 07:19:25;;;;;;;19.42;1.77;;;;;;;4.59;93.36;100008.13;5117269;28;20055;-48
2021/12/05 07:21:57;;;;;;;10.73;1.77;;;;;;;4.62;93.15;100011.50;5116870;28;20503;-49
2021/12/05 07:24:40;;;;;;;9.25;1.88;;;;;;;4.74;92.67;100023.22;5117672;28;20056;-51
2021/12/05 07:40:20;;;;;;;;;;;;;;;4.77;92.57;100025.69;5118590;28;20047;-50
2021/12/05 07:41:17;;;;;;;17.45;2.25;;;;;;;4.84;93.05;100032.38;5116849;28;20109;-51
2021/12/05 07:43:47;;;;;;;14.02;2.28;;;;;;;4.78;92.86;100048.41;5117353;28;20063;-51
2021/12/05 07:46:15;;;;;;;15.00;2.70;;;;;;;4.79;92.65;100057.16;5116858;28;20535;-51
2021/12/05 07:48:46;;;;;;;17.90;2.08;;;;;;;4.73;93.42;100050.41;5117336;28;20102;-52
2021/12/05 07:51:24;;;;;;;14.90;2.10;;;;;;;4.77;93.96;100046.69;5117734;28;20395;-51
2021/12/05 07:54:03;;;;;;;10.88;2.50;;;;;;;4.71;94.80;100057.50;5116564;28;20056;-51
2021/12/05 07:56:39;;;;;;;13.80;2.00;;;;;;;4.76;94.58;100054.69;5116222;28;20051;-51
2021/12/05 07:59:22;;;;;;;16.83;3.40;;;;;;;4.78;94.90;100045.78;5116773;28;20055;-51
2021/12/05 08:16:02;;;;;;;11.15;1.90;;;;;;;5.13;94.62;100080.13;5085401;28;20056;-51
2021/12/05 08:18:31;;;;;;;14.60;1.75;;;;;;;5.17;93.55;100091.34;5116084;28;20063;-49
2021/12/05 08:21:01;;;;;;;16.42;2.00;;;;;;;5.24;93.53;100098.03;5116835;28;20497;-53
2021/12/05 08:23:30;;;;;;;10.05;1.67;;;;;;;5.31;93.36;100083.69;5115589;28;20051;-52
2021/12/05 08:26:04;;;;;;;13.05;2.17;;;;;;;5.37;92.11;100087.78;5116357;28;20054;-53
2021/12/05 08:28:52;;;;;;;9.63;1.63;;;;;;;5.36;92.26;100091.34;5116302;28;20411;-51
2021/12/05 08:31:35;;;;;;;15.25;2.50;;;;;;;5.32;92.31;100095.03;5116009;28;20147;-53
2021/12/05 08:34:19;;;;;;;12.75;1.77;;;;;;;5.38;92.29;100100.03;5116202;28;20082;-51
2021/12/05 08:37:19;;;;;;;13.50;2.70;;;;;;;5.52;93.80;100102.84;5115223;28;20055;-53
2021/12/05 08:40:14;;;;;;;18.20;2.22;;;;;;;5.83;91.45;100085.56;5116948;28;20052;-53
2021/12/05 09:19:28;;;;;;;8.30;1.23;;;;;;;5.55;87.24;100139.53;5114961;28;20498;-53
2021/12/05 09:28:17;;;;;;;14.05;2.70;;;;;;;6.76;86.79;100145.03;5115254;28;20430;-52
2021/12/05 09:30:57;;;;;;;7.38;1.95;;;;;;;6.89;83.23;100142.59;5115715;28;20059;-52
2021/12/05 09:39:51;;;;;;;12.05;2.03;;;;;;;9.27;77.88;100149.25;5051668;28;20532;-50
2021/12/05 09:51:16;;;;;;;11.48;2.60;;;;;;;8.75;73.34;100165.66;5052054;28;20080;-51
2021/12/05 10:02:39;;;;;;;12.02;2.08;;;;;;;12.13;61.97;100175.94;5114205;28;20070;-49
2021/12/05 10:08:29;;;;;;;13.70;1.98;;;;;;;12.93;57.56;100179.72;5114382;28;20426;-52
2021/12/05 10:11:16;;;;;;;14.40;2.25;;;;;;;14.18;54.24;100177.81;5114126;28;20051;-50
2021/12/05 10:13:59;;;;;;;10.95;2.28;;;;;;;15.13;51.34;100191.19;5114234;28;20097;-49
2021/12/05 10:16:47;;;;;;;11.68;1.90;;;;;;;16.19;48.51;100191.69;5114298;28;20052;-50
2021/12/05 10:33:46;;;;;;;5.53;1.20;;;;;;;19.74;39.38;100205.44;5071615;28;20057;-51
2021/12/05 10:36:20;;;;;;;6.50;1.83;;;;;;;20.62;36.83;100207.66;5072262;28;20052;-49
2021/12/05 10:38:54;;;;;;;11.20;2.55;;;;;;;20.48;36.54;100198.41;5072336;28;20130;-50
2021/12/05 10:44:19;;;;;;;11.52;2.00;;;;;;;20.59;36.37;100203.47;5035197;28;20056;-51
2021/12/05 10:46:50;;;;;;;11.20;2.00;;;;;;;19.77;37.95;100192.53;5070931;28;20408;-50
2021/12/05 10:49:19;;;;;;;10.70;1.90;;;;;;;19.82;37.26;100189.31;5070711;28;20428;-50
2021/12/05 10:51:49;;;;;;;9.65;2.33;;;;;;;19.91;36.52;100191.06;5070845;28;20061;-51
2021/12/05 10:54:22;;;;;;;10.40;2.05;;;;;;;20.34;36.79;100189.13;5070573;28;20057;-50
2021/12/05 10:56:52;;;;;;;;;;;;;;;21.22;34.82;100197.53;5070896;28;20061;-49
2021/12/05 10:59:24;;;;;;;12.33;2.40;;;;;;;20.80;34.51;100187.84;5070438;28;19924;-49
2021/12/05 11:01:55;;;;;;;13.13;2.20;;;;;;;21.08;33.94;100194.53;5070349;28;20063;-49
2021/12/05 11:04:28;;;;;;;6.80;2.10;;;;;;;19.30;36.67;100190.28;5069762;28;20067;-49
2021/12/05 11:06:57;;;;;;;8.90;2.10;;;;;;;19.49;37.38;100183.81;5071133;28;20056;-50
2021/12/05 11:09:28;;;;;;;8.35;1.85;;;;;;;19.84;35.75;100192.72;5070790;28;20067;-50
2021/12/05 11:11:59;;;;;;;6.55;1.73;;;;;;;20.20;35.48;100197.84;5069618;28;20546;-50
2021/12/05 11:14:30;;;;;;;13.32;2.17;;;;;;;19.79;35.84;100192.38;5070477;28;20508;-49
2021/12/05 11:17:02;;;;;;;14.90;2.47;;;;;;;19.92;36.18;100195.44;5068176;28;20585;-50
2021/12/05 11:19:37;;;;;;;13.32;1.60;;;;;;;18.30;38.24;100192.34;5070104;28;20063;-50
2021/12/05 11:22:12;;;;;;;11.68;2.78;;;;;;;16.70;40.81;100203.09;5070047;28;20059;-49
2021/12/05 11:24:44;;;;;;;12.65;2.00;;;;;;;15.26;44.58;100198.13;5069872;28;20059;-51
2021/12/05 11:27:22;;;;;;;15.68;2.70;;;;;;;14.16;47.46;100206.44;5069835;28;20056;-50
2021/12/05 11:30:02;;;;;;;12.52;2.28;;;;;;;15.08;46.98;100188.06;5069823;28;20063;-49
2021/12/05 11:32:38;;;;;;;12.52;2.05;;;;;;;14.77;46.93;100193.34;5064162;28;20140;-49
2021/12/05 11:35:31;;;;;;;11.45;2.30;;;;;;;15.42;46.68;100187.81;5056544;28;20065;-49
2021/12/05 11:38:08;;;;;;;11.93;2.08;;;;;;;17.24;42.18;100203.44;5056787;28;20060;-49
2021/12/05 11:40:49;;;;;;;9.23;2.40;;;;;;;17.09;41.33;100208.44;5056628;28;20060;-49
2021/12/05 11:43:19;;;;;;;8.00;1.58;;;;;;;15.56;45.67;100203.47;5057588;28;20087;-49
2021/12/05 11:45:53;;;;;;;12.25;2.38;;;;;;;14.24;48.36;100198.63;5057039;28;20064;-49
2021/12/05 11:48:24;;;;;;;14.98;2.30;;;;;;;13.16;51.47;100193.88;5056332;28;20061;-49
2021/12/05 11:50:57;;;;;;;10.32;2.03;;;;;;;15.65;46.64;100200.97;5056561;28;20088;-51
2021/12/05 11:53:42;;;;;;;10.85;2.10;;;;;;;18.60;41.09;100195.63;5056561;28;20065;-49
2021/12/05 11:56:20;;;;;;;14.18;2.03;;;;;;;19.24;37.88;100204.34;5056111;28;20076;-49
2021/12/05 11:59:05;;;;;;;13.45;2.60;;;;;;;18.66;38.36;100209.28;5056412;28;20057;-51
2021/12/05 12:01:36;;;;;;;11.45;1.92;;;;;;;15.61;45.01;100179.84;5056298;28;20135;-49
2021/12/05 12:04:05;;;;;;;7.18;1.58;;;;;;;13.43;50.59;100196.25;5056896;28;20053;-49
2021/12/05 12:06:34;;;;;;;10.18;1.70;;;;;;;13.22;52.47;100198.75;5056169;28;20060;-49
2021/12/05 12:09:02;;;;;;;10.65;2.90;;;;;;;15.49;47.85;100204.16;5056753;28;20060;-50
2021/12/05 12:11:32;;;;;;;11.10;2.05;;;;;;;17.53;41.86;100202.50;5056416;28;20060;-49
2021/12/05 12:14:01;;;;;;;7.60;1.55;;;;;;;18.55;38.48;100210.34;5055852;28;20049;-49
2021/12/05 12:16:33;;;;;;;15.43;2.58;;;;;;;17.71;40.10;100191.84;5056052;28;20492;-51
2021/12/05 12:19:02;;;;;;;13.18;2.58;;;;;;;16.03;42.16;100194.91;5055718;28;20068;-50
2021/12/05 12:21:39;;;;;;;14.57;2.53;;;;;;;17.42;40.02;100201.69;5056246;28;20064;-50
2021/12/05 12:24:10;;;;;;;9.43;2.30;;;;;;;19.91;35.88;100217.97;5056486;28;20131;-49
2021/12/05 12:26:43;;;;;;;12.13;2.95;;;;;;;17.97;39.75;100213.44;5055859;28;20052;-49
2021/12/05 12:29:12;;;;;;;8.18;1.73;;;;;;;14.80;45.66;100211.78;5056064;28;20084;-50
2021/12/05 12:31:43;;;;;;;10.07;2.15;;;;;;;13.86;48.53;100210.63;5056822;28;20090;-50
2021/12/05 12:34:15;;;;;;;10.60;2.03;;;;;;;14.05;48.82;100205.47;5055779;28;20063;-49
2021/12/05 12:36:45;;;;;;;12.73;2.00;;;;;;;16.74;42.19;100211.69;5055431;28;20071;-52
2021/12/05 12:39:33;;;;;;;13.40;2.10;;;;;;;16.98;41.49;100206.78;5055947;28;20061;-48
2021/12/05 12:42:15;;;;;;;12.23;2.55;;;;;;;18.41;38.70;100213.59;5055556;28;20056;-49
2021/12/05 12:45:11;;;;;;;14.93;2.53;;;;;;;20.21;35.31;100199.56;5055313;28;20053;-50
2021/12/05 12:47:41;;;;;;;8.43;1.98;;;;;;;21.58;32.01;100205.22;5055496;28;20504;-50
2021/12/05 12:50:23;;;;;;;11.40;1.70;;;;;;;18.93;36.39;100194.91;5056256;28;20053;-50
2021/12/05 12:53:00;;;;;;;14.27;2.33;;;;;;;20.33;34.27;100203.59;5055166;28;20088;-50
2021/12/05 12:55:30;;;;;;;6.75;1.80;;;;;;;21.83;31.97;100206.78;5055893;28;20068;-49
2021/12/05 12:58:03;;;;;;;9.63;2.50;;;;;;;22.50;30.16;100210.81;5056071;28;20064;-50
2021/12/05 13:00:32;;;;;;;6.60;1.75;;;;;;;22.20;30.91;100201.69;5054947;28;20057;-50
2021/12/05 13:03:13;;;;;;;11.05;1.73;;;;;;;22.56;30.23;100201.13;5055364;28;20067;-51
2021/12/05 13:07:17;;;;;;;9.18;2.17;;;;;;;22.62;30.79;100225.56;5055116;28;20064;-50
2021/12/05 13:11:50;;;;;;;13.85;2.13;;;;;;;22.52;31.34;100214.16;5054935;28;20087;-49
2021/12/05 13:14:20;;;;;;;13.43;2.33;;;;;;;22.49;29.95;100214.50;5054963;28;20064;-49
2021/12/05 13:16:55;;;;;;;14.73;2.42;;;;;;;22.08;30.70;100215.59;5054627;28;20057;-49
2021/12/05 13:19:27;;;;;;;8.80;2.05;;;;;;;20.14;32.98;100220.03;5055146;28;20103;-51
2021/12/05 13:22:06;;;;;;;6.50;1.73;;;;;;;18.55;36.15;100221.09;5054354;28;20053;-50
2021/12/05 13:24:42;;;;;;;16.35;2.80;;;;;;;18.83;36.13;100241.66;5055287;28;20416;-50
2021/12/05 13:27:11;;;;;;;9.85;1.73;;;;;;;19.13;36.26;100226.94;5055876;28;20088;-49
2021/12/05 13:29:50;;;;;;;12.57;2.15;;;;;;;19.00;36.88;100231.91;5054774;28;20069;-49
2021/12/05 13:32:24;;;;;;;12.70;2.05;;;;;;;18.47;36.97;100237.13;5053775;28;20068;-50
2021/12/05 13:34:54;;;;;;;14.10;2.03;;;;;;;18.80;37.49;100223.16;5054968;28;20409;-49
2021/12/05 13:37:32;;;;;;;8.23;1.65;;;;;;;20.14;34.56;100236.19;5054475;28;20065;-50
2021/12/05 13:40:11;;;;;;;14.23;2.22;;;;;;;21.12;33.15;100236.31;5054502;28;20448;-49
2021/12/05 13:42:43;;;;;;;6.05;1.42;;;;;;;21.42;32.22;100243.84;5054324;28;20071;-50
2021/12/05 13:45:17;;;;;;;8.35;2.10;;;;;;;18.97;35.92;100237.59;5053369;28;20103;-49
2021/12/05 13:47:48;;;;;;;13.20;2.63;;;;;;;17.58;37.83;100245.81;5055294;28;20053;-49
2021/12/05 13:50:35;;;;;;;16.60;1.73;;;;;;;19.16;35.59;100248.13;5054427;28;20048;-49
2021/12/05 13:53:25;;;;;;;8.95;2.20;;;;;;;19.60;34.71;100249.91;5055066;28;20405;-49
2021/12/05 13:56:02;;;;;;;14.02;2.25;;;;;;;20.78;32.98;100250.81;5053707;28;20096;-52
2021/12/05 13:58:41;;;;;;;9.10;1.48;;;;;;;21.12;32.33;100244.41;5053926;28;20508;-49
2021/12/05 14:01:15;;;;;;;11.48;2.10;;;;;;;22.18;29.97;100273.97;5053881;28;20087;-49
2021/12/05 14:03:50;;;;;;;9.60;1.85;;;;;;;20.66;31.90;100257.56;5054670;28;20140;-49
2021/12/05 14:06:38;;;;;;;11.38;2.25;;;;;;;18.51;36.10;100281.50;5054645;28;20063;-49
2021/12/05 14:09:10;;;;;;;7.00;1.73;;;;;;;17.64;37.91;100267.50;5054422;28;20159;-52
2021/12/05 14:11:43;;;;;;;7.28;1.55;;;;;;;18.08;37.11;100279.50;5054586;28;20080;-49
2021/12/05 14:14:16;;;;;;;6.88;1.60;;;;;;;18.36;35.79;100270.44;5052864;28;20056;-50
2021/12/05 14:16:49;;;;;;;11.43;1.73;;;;;;;17.85;37.13;100279.00;5053934;28;20088;-51
2021/12/05 14:19:24;;;;;;;9.07;1.98;;;;;;;17.91;37.23;100284.66;5054813;28;20057;-49
2021/12/05 14:21:54;;;;;;;11.38;1.67;;;;;;;18.81;35.46;100282.13;5055074;28;20057;-49
2021/12/05 14:24:26;;;;;;;9.05;1.55;;;;;;;16.61;38.06;100274.44;5053426;28;20064;-49
2021/12/05 14:26:58;;;;;;;8.10;1.58;;;;;;;15.57;41.22;100287.19;5053641;28;20064;-49
2021/12/05 14:29:28;;;;;;;7.53;1.50;;;;;;;14.30;42.48;100294.19;5053636;28;20114;-49
2021/12/05 14:32:01;;;;;;;12.38;1.42;;;;;;;14.13;42.73;100312.38;5054189;28;20045;-49
2021/12/05 14:34:36;;;;;;;8.32;1.60;;;;;;;14.62;40.72;100310.25;5053287;28;20064;-49
2021/12/05 14:37:10;;;;;;;6.85;1.65;;;;;;;15.46;39.94;100306.81;5053709;28;20061;-49
2021/12/05 14:39:40;;;;;;;6.70;1.45;;;;;;;15.38;39.69;100306.63;5054431;28;20106;-50
2021/12/05 14:42:10;;;;;;;9.15;1.10;;;;;;;15.56;40.78;100286.31;5053485;28;20439;-49
2021/12/05 14:44:39;;;;;;;9.50;2.10;;;;;;;16.09;40.33;100296.03;5053992;28;20060;-51
2021/12/05 14:47:11;;;;;;;8.07;1.67;;;;;;;18.02;36.96;100321.19;5053705;28;20057;-49
2021/12/05 14:49:42;;;;;;;9.52;2.10;;;;;;;19.10;34.35;100310.63;5053379;28;20059;-50
2021/12/05 14:52:15;;;;;;;6.93;1.35;;;;;;;18.01;36.09;100312.28;5053391;28;20118;-49
2021/12/05 14:54:43;;;;;;;6.85;1.50;;;;;;;18.50;35.27;100321.94;5054292;28;20405;-49
2021/12/05 14:57:14;;;;;;;13.43;2.15;;;;;;;18.99;34.56;100327.81;5053884;28;20468;-50
2021/12/05 14:59:44;;;;;;;8.10;1.58;;;;;;;18.77;34.51;100329.09;5054108;28;20115;-49
2021/12/05 15:02:15;;;;;;;6.82;1.30;;;;;;;16.92;37.74;100338.59;5053661;28;20127;-50
2021/12/05 15:04:46;;;;;;;7.68;1.30;;;;;;;14.70;43.07;100333.66;5053553;28;20136;-51
2021/12/05 15:07:17;;;;;;;5.00;1.52;;;;;;;13.64;45.86;100336.75;5055095;28;20057;-50
2021/12/05 15:09:48;;;;;;;7.47;1.45;;;;;;;13.14;48.26;100334.31;5057064;28;20523;-49
2021/12/05 15:12:20;;;;;;;6.70;1.60;;;;;;;12.36;49.15;100340.94;5058450;28;20389;-49
2021/12/05 15:14:52;;;;;;;15.90;1.83;;;;;;;11.40;51.61;100346.72;5057740;28;20072;-49
2021/12/05 15:17:23;;;;;;;9.00;1.55;;;;;;;10.74;53.43;100371.41;5058044;28;20053;-49
2021/12/05 15:19:54;;;;;;;9.90;1.63;;;;;;;10.28;55.54;100360.22;5056843;28;20064;-50
2021/12/05 15:22:38;;;;;;;8.77;1.67;;;;;;;9.80;57.58;100374.63;5057599;28;20153;-49
2021/12/05 15:25:10;;;;;;;10.93;2.10;;;;;;;9.60;58.33;100362.59;5057013;28;20136;-51
2021/12/05 15:27:38;;;;;;;10.43;1.92;;;;;;;9.34;59.56;100365.94;5058186;28;20053;-51
2021/12/05 15:30:16;;;;;;;6.07;1.70;;;;;;;9.11;61.11;100376.94;5056911;28;20057;-51
2021/12/05 15:32:46;;;;;;;10.43;2.42;;;;;;;8.93;61.63;100373.53;5057566;28;20131;-51
2021/12/05 15:35:18;;;;;;;13.40;2.50;;;;;;;8.81;62.56;100374.25;5056577;28;20505;-51
2021/12/05 15:37:48;;;;;;;9.77;1.65;;;;;;;8.59;63.58;100379.03;5056532;28;20100;-49